Time;durP1;ratioP1;P1;durP2;ratioP2;P2;SDS_P1;SDS_P2;PMS_P1;PMS_P2;Temp;Humidity;BMP_temperature;BMP_pressure;BME280_temperature;BME280_humidity;BME280_pressure;Samples;Min_cycle;Max_cycle;Signal;HPM_P1;HPM_P2
2022/01/01 00:01:53;;;;;;;8.77;7.87;;;;;;;9.70;100.00;98873.22;4932214;29;20229;-69
2022/01/01 00:04:21;;;;;;;10.53;9.43;;;;;;;9.73;100.00;98876.56;4932532;29;20796;-70
2022/01/01 00:06:50;;;;;;;8.83;7.60;;;;;;;9.73;100.00;98876.56;4933291;29;20879;-70
2022/01/01 00:09:19;;;;;;;7.33;6.63;;;;;;;9.68;100.00;98880.44;4926783;29;20786;-70
2022/01/01 00:11:47;;;;;;;8.43;7.50;;;;;;;9.68;100.00;98877.00;4927598;29;20751;-70
2022/01/01 00:14:15;;;;;;;5.87;5.13;;;;;;;9.69;100.00;98873.38;4928263;29;20214;-70
2022/01/01 00:16:48;;;;;;;5.33;4.93;;;;;;;9.67;100.00;98876.13;4930644;29;20203;-70
2022/01/01 00:19:16;;;;;;;7.07;4.73;;;;;;;9.70;100.00;98881.16;4929610;29;20265;-70
2022/01/01 00:21:44;;;;;;;5.20;4.80;;;;;;;9.66;100.00;98884.19;4928288;29;20463;-71
2022/01/01 00:24:12;;;;;;;7.40;6.67;;;;;;;9.75;100.00;98894.00;4932538;29;20211;-70
2022/01/01 00:26:42;;;;;;;5.53;5.13;;;;;;;9.69;100.00;98884.78;4927424;29;20231;-69
2022/01/01 00:29:10;;;;;;;4.97;4.57;;;;;;;9.72;100.00;98894.25;4934414;29;20235;-70
2022/01/01 00:31:38;;;;;;;5.97;5.37;;;;;;;9.66;100.00;98895.63;4926882;29;20239;-70
2022/01/01 00:34:06;;;;;;;5.23;4.83;;;;;;;9.63;100.00;98897.69;4933222;29;20250;-70
2022/01/01 00:36:34;;;;;;;8.27;5.90;;;;;;;9.68;100.00;98896.34;4928840;29;20220;-70
2022/01/01 00:39:02;;;;;;;5.73;5.10;;;;;;;9.64;100.00;98900.22;4930904;29;20227;-70
2022/01/01 00:41:30;;;;;;;4.67;4.37;;;;;;;9.69;100.00;98902.47;4929958;29;20211;-70
2022/01/01 00:43:59;;;;;;;5.30;4.80;;;;;;;9.65;100.00;98899.25;4928714;29;20210;-70
2022/01/01 00:46:27;;;;;;;5.23;4.73;;;;;;;9.62;100.00;98898.69;4928950;29;20278;-71
2022/01/01 00:48:55;;;;;;;5.20;4.70;;;;;;;9.65;100.00;98899.25;4929263;29;20231;-68
2022/01/01 00:51:27;;;;;;;6.00;5.33;;;;;;;9.69;100.00;98905.13;4930166;29;20253;-70
2022/01/01 00:53:55;;;;;;;4.33;4.00;;;;;;;9.65;100.00;98911.63;4930639;29;20584;-69
2022/01/01 00:56:23;;;;;;;6.23;4.83;;;;;;;9.65;100.00;98909.00;4927479;29;20215;-70
2022/01/01 00:58:51;;;;;;;5.00;4.50;;;;;;;9.61;100.00;98918.19;4930387;29;20277;-71
2022/01/01 01:01:20;;;;;;;5.40;4.07;;;;;;;9.63;100.00;98917.09;4933861;29;20574;-70
2022/01/01 01:03:49;;;;;;;4.37;4.07;;;;;;;9.60;100.00;98908.56;4927472;29;20628;-70
2022/01/01 01:06:16;;;;;;;5.43;4.93;;;;;;;9.58;100.00;98918.44;4936408;29;20628;-71
2022/01/01 01:08:44;;;;;;;4.53;4.13;;;;;;;9.64;100.00;98920.56;4934807;29;20224;-71
2022/01/01 01:11:12;;;;;;;4.70;4.30;;;;;;;9.61;100.00;98926.97;4932943;29;20232;-71
2022/01/01 01:13:44;;;;;;;5.20;4.70;;;;;;;9.59;100.00;98928.91;4936754;29;20215;-71
2022/01/01 01:16:12;;;;;;;5.13;4.50;;;;;;;9.61;100.00;98939.34;4931280;29;20298;-71
2022/01/01 01:18:41;;;;;;;5.70;5.00;;;;;;;9.69;100.00;98936.88;4930083;29;20219;-71
2022/01/01 01:21:09;;;;;;;5.47;4.87;;;;;;;9.62;100.00;98943.66;4929277;29;20204;-70
2022/01/01 01:23:37;;;;;;;5.97;4.80;;;;;;;9.72;100.00;98938.41;4928383;29;20211;-71
2022/01/01 01:26:07;;;;;;;5.33;4.93;;;;;;;9.64;100.00;98929.34;4929613;29;20215;-68
2022/01/01 01:28:37;;;;;;;4.80;4.50;;;;;;;9.61;100.00;98934.91;4928464;29;20215;-68
2022/01/01 01:31:05;;;;;;;5.20;4.60;;;;;;;9.61;100.00;98934.91;4927593;29;20239;-64
2022/01/01 01:33:33;;;;;;;6.70;5.00;;;;;;;9.68;100.00;98928.09;4931349;29;20215;-66
2022/01/01 01:36:03;;;;;;;5.00;4.60;;;;;;;9.73;100.00;98925.06;4929775;29;20211;-67
2022/01/01 01:38:36;;;;;;;4.90;4.50;;;;;;;9.73;100.00;98934.78;4931216;29;20503;-66
2022/01/01 01:41:04;;;;;;;4.53;4.20;;;;;;;9.68;100.00;98935.22;4931361;29;20683;-66
2022/01/01 01:43:32;;;;;;;4.37;4.07;;;;;;;9.66;100.00;98927.41;4928875;29;20208;-65
2022/01/01 01:46:04;;;;;;;4.50;4.20;;;;;;;9.68;100.00;98929.91;4930213;29;20211;-69
2022/01/01 01:48:35;;;;;;;5.73;4.90;;;;;;;9.74;100.00;98933.81;4927996;29;20215;-69
2022/01/01 01:51:05;;;;;;;5.67;4.30;;;;;;;9.70;100.00;98923.50;4931737;29;20230;-68
2022/01/01 01:53:34;;;;;;;5.10;4.43;;;;;;;9.74;100.00;98931.16;4940181;29;20723;-71
2022/01/01 01:56:01;;;;;;;4.67;4.00;;;;;;;9.82;100.00;98933.97;4935828;29;20235;-67
2022/01/01 01:58:30;;;;;;;3.90;3.60;;;;;;;9.85;100.00;98933.72;4916757;29;20212;-70
2022/01/01 02:03:43;;;;;;;3.97;3.67;;;;;;;9.80;100.00;98928.81;4922678;29;20215;-71
2022/01/01 02:06:12;;;;;;;4.53;4.13;;;;;;;9.70;100.00;98938.56;4934773;29;20219;-70
2022/01/01 02:08:40;;;;;;;4.10;3.80;;;;;;;9.74;100.00;98939.09;4932099;29;21936;-70
2022/01/01 02:11:09;;;;;;;4.00;3.70;;;;;;;9.67;100.00;98942.31;4929295;29;20303;-70
2022/01/01 02:13:48;;;;;;;4.03;3.73;;;;;;;9.63;100.00;98946.19;4926835;29;20200;-71
2022/01/01 02:16:33;;;;;;;4.57;3.87;;;;;;;9.67;100.00;98944.94;4928484;29;21053;-70
2022/01/01 02:19:01;;;;;;;3.97;3.53;;;;;;;9.61;100.00;98945.50;4933653;29;20276;-70
2022/01/01 02:21:31;;;;;;;4.40;4.00;;;;;;;9.63;100.00;98950.63;4931145;29;20203;-70
2022/01/01 02:24:00;;;;;;;3.90;3.60;;;;;;;9.60;100.00;98948.25;4933631;29;20216;-70
2022/01/01 02:26:31;;;;;;;4.20;3.90;;;;;;;9.57;100.00;98949.38;4932462;29;20222;-71
2022/01/01 02:29:00;;;;;;;3.93;3.40;;;;;;;9.56;100.00;98942.41;4933840;29;20756;-70
2022/01/01 02:31:28;;;;;;;3.87;3.57;;;;;;;9.51;100.00;98945.44;4934242;29;20226;-71
2022/01/01 02:34:03;;;;;;;3.57;3.27;;;;;;;9.51;100.00;98944.63;4935417;29;20207;-71
2022/01/01 02:36:34;;;;;;;3.50;3.27;;;;;;;9.54;100.00;98942.53;4927139;29;20218;-70
2022/01/01 02:39:11;;;;;;;5.97;3.83;;;;;;;9.44;100.00;98941.66;4930466;29;20232;-70
2022/01/01 02:41:39;;;;;;;4.23;3.93;;;;;;;9.44;100.00;98941.66;4932246;29;20211;-71
2022/01/01 02:44:07;;;;;;;4.60;4.20;;;;;;;9.41;100.00;98941.94;4933914;29;20326;-70
2022/01/01 02:46:36;;;;;;;4.90;4.50;;;;;;;9.39;100.00;98941.25;4937009;29;20262;-71
2022/01/01 02:49:05;;;;;;;4.50;4.10;;;;;;;9.37;100.00;98936.06;4933656;29;20257;-71
2022/01/01 02:51:34;;;;;;;4.60;4.20;;;;;;;9.45;100.00;98940.69;4932189;29;20686;-70
2022/01/01 02:54:02;;;;;;;4.43;4.03;;;;;;;9.37;100.00;98945.81;4934516;29;20203;-70
2022/01/01 02:56:30;;;;;;;4.67;4.27;;;;;;;9.33;100.00;98936.47;4931499;29;20203;-70
2022/01/01 02:58:59;;;;;;;4.70;4.30;;;;;;;9.32;100.00;98942.75;4928859;29;20692;-71
2022/01/01 03:01:27;;;;;;;5.77;4.57;;;;;;;9.33;100.00;98952.34;4935018;29;20290;-70
2022/01/01 03:03:55;;;;;;;4.03;3.73;;;;;;;9.30;100.00;98955.25;4928152;29;20216;-72
2022/01/01 03:06:28;;;;;;;4.03;3.63;;;;;;;9.34;100.00;98948.75;4929080;29;20208;-72
2022/01/01 03:08:58;;;;;;;3.80;3.50;;;;;;;9.28;100.00;98952.75;4921780;29;20243;-70
2022/01/01 03:11:25;;;;;;;4.13;3.77;;;;;;;9.29;100.00;98956.25;4931806;29;20665;-72
2022/01/01 03:13:53;;;;;;;4.23;3.83;;;;;;;9.29;100.00;98954.41;4928959;29;20212;-72
2022/01/01 03:16:22;;;;;;;4.27;3.97;;;;;;;9.23;100.00;98953.13;4926662;29;20584;-71
2022/01/01 03:18:50;;;;;;;4.70;4.30;;;;;;;9.29;100.00;98957.06;4929799;29;20228;-72
2022/01/01 03:21:18;;;;;;;4.20;3.67;;;;;;;9.31;100.00;98956.94;4927700;29;20211;-72
2022/01/01 03:23:45;;;;;;;4.97;4.47;;;;;;;9.27;100.00;98957.19;4924578;29;20250;-72
2022/01/01 03:26:15;;;;;;;5.00;4.50;;;;;;;9.26;100.00;98963.44;4929473;29;20211;-72
2022/01/01 03:28:43;;;;;;;4.53;4.13;;;;;;;9.28;100.00;98960.66;4929521;29;20408;-72
2022/01/01 03:31:11;;;;;;;4.77;4.37;;;;;;;9.27;100.00;98959.00;4930862;29;20668;-71
2022/01/01 03:33:39;;;;;;;5.67;5.07;;;;;;;9.29;100.00;98958.88;4932827;29;20206;-71
2022/01/01 03:36:07;;;;;;;6.87;4.17;;;;;;;9.25;100.00;98960.94;4931400;29;20203;-70
2022/01/01 03:38:35;;;;;;;5.33;4.83;;;;;;;9.24;100.00;98973.31;4931040;29;20215;-71
2022/01/01 03:41:03;;;;;;;4.23;3.93;;;;;;;9.27;100.00;98967.75;4927884;29;20243;-71
2022/01/01 03:43:32;;;;;;;5.30;4.70;;;;;;;9.23;100.00;98984.03;4929442;29;20207;-72
2022/01/01 03:46:00;;;;;;;5.00;4.60;;;;;;;9.19;100.00;98974.69;4926421;29;20204;-71
2022/01/01 03:48:28;;;;;;;4.33;3.93;;;;;;;9.20;100.00;98979.84;4931668;29;20227;-72
2022/01/01 03:50:56;;;;;;;4.43;4.13;;;;;;;9.25;100.00;98979.47;4926584;29;20667;-70
2022/01/01 03:53:25;;;;;;;5.20;4.70;;;;;;;9.31;100.00;98975.47;4926331;29;20227;-71
2022/01/01 03:55:53;;;;;;;5.03;4.60;;;;;;;9.31;100.00;98967.53;4929746;29;20235;-71
2022/01/01 03:58:23;;;;;;;5.07;4.67;;;;;;;9.33;100.00;98965.56;4929089;29;20218;-71
2022/01/01 04:00:53;;;;;;;5.30;4.83;;;;;;;9.22;100.00;98975.25;4934134;29;20675;-71
2022/01/01 04:03:21;;;;;;;5.57;5.07;;;;;;;9.26;100.00;98974.00;4924487;29;20208;-71
2022/01/01 04:05:49;;;;;;;5.50;4.80;;;;;;;9.20;100.00;98974.53;4924981;29;20215;-71
2022/01/01 04:08:17;;;;;;;4.73;4.33;;;;;;;9.20;100.00;98979.00;4931261;29;20219;-71
2022/01/01 04:10:45;;;;;;;5.73;5.17;;;;;;;9.26;100.00;98965.25;4929168;29;20245;-72
2022/01/01 04:13:13;;;;;;;5.17;4.77;;;;;;;9.20;100.00;98969.25;4933429;29;20775;-71
2022/01/01 04:15:42;;;;;;;5.60;5.10;;;;;;;9.20;100.00;98985.13;4926126;29;20594;-71
2022/01/01 04:18:13;;;;;;;5.37;4.93;;;;;;;9.22;100.00;98975.25;4925987;29;20208;-71
2022/01/01 04:20:44;;;;;;;4.97;4.50;;;;;;;9.17;100.00;98974.00;4920785;29;20235;-71
2022/01/01 04:23:13;;;;;;;5.13;4.73;;;;;;;9.12;100.00;98974.38;4928792;29;20204;-70
2022/01/01 04:25:41;;;;;;;5.43;4.37;;;;;;;9.08;100.00;98967.66;4934289;29;20289;-71
2022/01/01 04:28:08;;;;;;;5.00;4.60;;;;;;;9.13;100.00;98973.41;4931815;29;20302;-70
2022/01/01 04:30:37;;;;;;;5.20;4.70;;;;;;;9.11;100.00;98970.06;4930993;29;20237;-70
2022/01/01 04:33:04;;;;;;;5.30;4.43;;;;;;;9.08;100.00;98970.31;4930976;29;20231;-71
2022/01/01 04:35:34;;;;;;;4.90;4.50;;;;;;;9.10;100.00;98976.31;4932821;29;20306;-70
2022/01/01 04:38:02;;;;;;;5.60;5.10;;;;;;;9.06;100.00;98975.72;4928249;28;20207;-70
2022/01/01 04:40:30;;;;;;;6.20;4.83;;;;;;;9.05;100.00;98970.56;4932403;29;20234;-72
2022/01/01 04:42:58;;;;;;;5.53;4.80;;;;;;;9.07;100.00;98972.09;4926091;29;20234;-71
2022/01/01 04:45:26;;;;;;;5.20;4.70;;;;;;;9.07;100.00;98980.03;4932958;29;20210;-71
2022/01/01 04:47:54;;;;;;;5.27;4.80;;;;;;;9.10;100.00;98971.03;4927200;29;20214;-71
2022/01/01 04:50:22;;;;;;;4.87;4.47;;;;;;;9.04;100.00;98971.53;4930245;29;20227;-70
2022/01/01 04:52:53;;;;;;;5.10;4.57;;;;;;;9.02;100.00;98968.19;4929490;29;20219;-71
2022/01/01 04:55:22;;;;;;;4.70;4.30;;;;;;;8.98;100.00;98963.16;4924989;29;20205;-70
2022/01/01 04:57:50;;;;;;;7.00;4.60;;;;;;;8.96;100.00;98962.47;4925027;29;20719;-71
2022/01/01 05:00:18;;;;;;;4.67;4.17;;;;;;;8.96;100.00;98959.81;4926604;28;20246;-70
2022/01/01 05:02:46;;;;;;;5.13;4.73;;;;;;;8.98;100.00;98965.81;4926163;29;20721;-68
2022/01/01 05:05:15;;;;;;;6.80;4.60;;;;;;;8.91;100.00;98951.44;4930180;29;20297;-69
2022/01/01 05:07:43;;;;;;;5.07;4.20;;;;;;;8.86;100.00;98955.44;4931633;29;20216;-71
2022/01/01 05:10:12;;;;;;;4.97;4.17;;;;;;;8.90;100.00;98964.78;4928222;29;20224;-71
2022/01/01 05:12:40;;;;;;;4.30;3.90;;;;;;;8.91;100.00;98956.72;4924815;29;20802;-71
2022/01/01 05:15:09;;;;;;;4.20;3.90;;;;;;;8.86;100.00;98955.44;4922720;29;20212;-67
2022/01/01 05:17:41;;;;;;;5.03;4.53;;;;;;;8.82;100.00;98960.13;4923096;29;20283;-66
2022/01/01 05:20:10;;;;;;;5.00;4.30;;;;;;;8.81;100.00;98961.94;4925776;29;20242;-67
2022/01/01 05:22:38;;;;;;;5.10;4.60;;;;;;;8.73;100.00;98967.03;4927608;29;20230;-71
2022/01/01 05:25:07;;;;;;;5.20;4.33;;;;;;;8.70;100.00;98975.19;4925761;29;20363;-70
2022/01/01 05:27:36;;;;;;;4.80;4.40;;;;;;;8.80;100.00;98972.63;4923581;29;20220;-70
2022/01/01 05:30:06;;;;;;;4.93;4.13;;;;;;;8.79;100.00;98976.25;4924911;29;20282;-71
2022/01/01 05:32:34;;;;;;;4.03;3.80;;;;;;;8.81;100.00;98979.59;4925556;29;20235;-70
2022/01/01 05:35:02;;;;;;;4.87;4.57;;;;;;;8.81;100.00;98982.25;4922697;29;20203;-70
2022/01/01 05:37:30;;;;;;;4.80;4.40;;;;;;;8.87;100.00;98986.19;4922444;29;20223;-72
2022/01/01 05:39:58;;;;;;;4.20;3.90;;;;;;;8.84;100.00;98984.63;4922805;29;20231;-69
2022/01/01 05:42:26;;;;;;;4.47;4.17;;;;;;;8.86;100.00;98987.97;4924746;29;20300;-70
2022/01/01 05:44:55;;;;;;;4.27;3.97;;;;;;;8.92;100.00;98991.91;4927767;29;20216;-71
2022/01/01 05:47:23;;;;;;;4.30;3.90;;;;;;;8.93;100.00;98991.81;4929795;29;20211;-71
2022/01/01 05:49:51;;;;;;;5.87;4.33;;;;;;;8.87;100.00;98992.28;4927245;29;20238;-69
2022/01/01 05:52:19;;;;;;;5.40;4.83;;;;;;;9.01;100.00;98990.31;4924531;28;20258;-71
2022/01/01 05:54:47;;;;;;;5.03;4.53;;;;;;;8.93;100.00;98990.94;4927713;29;20449;-71
2022/01/01 05:57:15;;;;;;;4.43;4.03;;;;;;;8.94;100.00;98987.34;4933145;29;20686;-71
2022/01/01 05:59:43;;;;;;;4.97;4.57;;;;;;;8.93;100.00;98986.50;4927954;29;20239;-71
2022/01/01 06:02:12;;;;;;;5.47;4.23;;;;;;;9.00;100.00;98991.28;4928678;29;20691;-71
2022/01/01 06:04:40;;;;;;;4.77;4.37;;;;;;;8.99;100.00;98990.44;4932402;29;20270;-71
2022/01/01 06:07:10;;;;;;;4.87;4.47;;;;;;;8.89;100.00;99002.75;4928081;29;20204;-71
2022/01/01 06:09:38;;;;;;;4.53;4.23;;;;;;;8.88;100.00;99007.19;4927451;29;20242;-70
2022/01/01 06:12:07;;;;;;;4.87;4.47;;;;;;;8.91;100.00;99008.75;4927038;29;20210;-72
2022/01/01 06:14:35;;;;;;;4.87;4.47;;;;;;;8.88;100.00;99003.72;4925507;29;20235;-72
2022/01/01 06:17:03;;;;;;;4.97;4.57;;;;;;;8.94;100.00;99012.00;4928441;29;20208;-73
2022/01/01 06:19:33;;;;;;;5.40;4.90;;;;;;;8.95;100.00;99004.88;4928354;29;20231;-72
2022/01/01 06:22:01;;;;;;;5.63;5.13;;;;;;;8.92;100.00;99002.50;4928627;29;20211;-70
2022/01/01 06:24:29;;;;;;;5.27;4.87;;;;;;;8.93;100.00;99004.16;4930465;29;20237;-72
2022/01/01 06:26:57;;;;;;;4.73;4.33;;;;;;;8.88;100.00;99001.91;4929281;29;20207;-72
2022/01/01 06:29:25;;;;;;;4.90;4.50;;;;;;;8.90;100.00;99007.94;4929586;29;20698;-72
2022/01/01 06:31:56;;;;;;;5.73;5.23;;;;;;;8.95;100.00;99000.44;4929752;29;20645;-72
2022/01/01 06:34:24;;;;;;;16.70;12.97;;;;;;;8.94;100.00;98998.75;4929571;29;20369;-72
2022/01/01 06:36:54;;;;;;;6.50;5.77;;;;;;;9.01;100.00;99006.19;4928595;29;20234;-72
2022/01/01 06:39:22;;;;;;;9.67;7.47;;;;;;;9.01;100.00;99008.81;4927886;29;20836;-73
2022/01/01 06:41:50;;;;;;;22.37;14.77;;;;;;;9.00;100.00;99007.16;4931002;29;20701;-72
2022/01/01 06:44:18;;;;;;;6.20;5.60;;;;;;;8.96;100.00;99010.06;4926365;29;20219;-72
2022/01/01 06:46:46;;;;;;;18.10;15.87;;;;;;;9.08;100.00;99004.69;4927945;29;20692;-72
2022/01/01 06:49:14;;;;;;;13.33;11.93;;;;;;;9.00;100.00;99013.25;4928093;29;20759;-73
2022/01/01 06:51:42;;;;;;;14.43;12.97;;;;;;;8.96;100.00;99015.34;4925269;29;20215;-72
2022/01/01 06:54:11;;;;;;;6.23;5.73;;;;;;;8.94;100.00;99025.19;4929571;29;20227;-73
2022/01/01 06:56:39;;;;;;;7.93;7.33;;;;;;;9.00;100.00;99037.06;4932062;29;20524;-71
2022/01/01 06:59:08;;;;;;;5.17;4.77;;;;;;;9.03;100.00;99028.03;4927214;29;20251;-69
2022/01/01 07:01:36;;;;;;;9.57;8.87;;;;;;;9.11;100.00;99036.16;4927014;29;20215;-72
2022/01/01 07:04:05;;;;;;;4.27;3.97;;;;;;;9.01;100.00;99036.09;4928284;29;20214;-72
2022/01/01 07:06:34;;;;;;;5.57;5.13;;;;;;;9.06;100.00;99035.72;4927267;29;20224;-72
2022/01/01 07:09:02;;;;;;;5.80;5.30;;;;;;;9.12;100.00;99036.03;4926451;29;20613;-72
2022/01/01 07:11:31;;;;;;;3.93;3.73;;;;;;;9.05;100.00;99044.59;4929003;29;20631;-73
2022/01/01 07:13:59;;;;;;;4.43;4.07;;;;;;;9.08;100.00;99037.25;4923431;29;20234;-73
2022/01/01 07:16:27;;;;;;;3.17;2.97;;;;;;;9.08;100.00;99047.00;4927893;29;20207;-71
2022/01/01 07:18:55;;;;;;;3.70;3.40;;;;;;;9.09;100.00;99057.47;4927338;29;20318;-74
2022/01/01 07:21:23;;;;;;;5.10;4.70;;;;;;;9.07;100.00;99059.38;4926600;29;20590;-74
2022/01/01 07:23:51;;;;;;;4.03;3.43;;;;;;;9.08;100.00;99070.78;4923602;29;20222;-72
2022/01/01 07:26:19;;;;;;;3.93;3.57;;;;;;;9.06;100.00;99075.38;4925248;29;20501;-72
2022/01/01 07:28:49;;;;;;;3.87;3.67;;;;;;;9.08;100.00;99073.44;4925588;29;20228;-73
2022/01/01 07:31:18;;;;;;;4.20;3.80;;;;;;;9.09;100.00;99083.03;4926075;29;20609;-72
2022/01/01 07:33:46;;;;;;;6.50;6.00;;;;;;;9.06;100.00;99088.59;4925450;29;20299;-72
2022/01/01 07:36:14;;;;;;;4.93;4.43;;;;;;;9.08;100.00;99086.66;4926923;29;20244;-74
2022/01/01 07:38:42;;;;;;;5.43;4.93;;;;;;;9.10;100.00;99088.22;4926108;29;20652;-70
2022/01/01 07:41:10;;;;;;;5.27;3.70;;;;;;;9.11;100.00;99089.03;4925313;29;20219;-72
2022/01/01 07:43:39;;;;;;;3.97;3.67;;;;;;;9.11;100.00;99084.63;4931252;29;20541;-71
2022/01/01 07:46:08;;;;;;;3.93;3.53;;;;;;;9.16;100.00;99078.91;4928070;29;20222;-72
2022/01/01 07:48:36;;;;;;;3.83;3.53;;;;;;;9.14;100.00;99083.50;4926564;29;20219;-71
2022/01/01 07:51:04;;;;;;;3.83;3.50;;;;;;;9.12;100.00;99088.06;4928007;29;20227;-72
2022/01/01 07:53:32;;;;;;;4.50;4.10;;;;;;;9.18;100.00;99097.31;4923718;29;20218;-72
2022/01/01 07:56:00;;;;;;;91.03;53.57;;;;;;;9.23;100.00;99095.94;4926591;29;20257;-73
2022/01/01 07:58:28;;;;;;;56.83;31.17;;;;;;;9.21;100.00;99095.25;4928729;29;20283;-71
2022/01/01 08:00:56;;;;;;;19.13;11.10;;;;;;;9.18;100.00;99092.84;4926938;29;20258;-71
2022/01/01 08:03:26;;;;;;;20.80;12.27;;;;;;;9.20;100.00;99082.97;4925642;29;20212;-72
2022/01/01 08:05:54;;;;;;;11.77;7.77;;;;;;;9.16;100.00;99086.03;4926605;29;20286;-71
2022/01/01 08:08:22;;;;;;;7.30;5.73;;;;;;;9.15;100.00;99085.19;4925730;29;20208;-71
2022/01/01 08:10:51;;;;;;;6.10;5.43;;;;;;;9.15;100.00;99089.66;4924047;29;20298;-72
2022/01/01 08:13:23;;;;;;;3.83;3.53;;;;;;;9.21;100.00;99078.53;4924217;29;20282;-71
2022/01/01 08:15:52;;;;;;;4.07;3.67;;;;;;;9.30;100.00;99076.94;4924330;29;20227;-72
2022/01/01 08:18:21;;;;;;;6.43;5.60;;;;;;;9.20;100.00;99080.34;4932170;29;20676;-70
2022/01/01 08:20:50;;;;;;;4.30;3.93;;;;;;;9.18;100.00;99068.22;4929772;29;20219;-72
2022/01/01 08:23:18;;;;;;;21.63;12.13;;;;;;;9.33;100.00;99068.75;4926377;29;20585;-72
2022/01/01 08:25:46;;;;;;;9.50;7.57;;;;;;;9.24;100.00;99068.53;4927210;29;20215;-73
2022/01/01 08:28:14;;;;;;;7.03;5.07;;;;;;;9.21;100.00;99071.44;4930766;29;20229;-72
2022/01/01 08:30:42;;;;;;;19.73;10.13;;;;;;;9.36;100.00;99071.13;4926030;29;20231;-72
2022/01/01 08:33:10;;;;;;;24.97;13.27;;;;;;;9.35;100.00;99067.63;4927068;29;20228;-73
2022/01/01 08:35:38;;;;;;;39.47;17.33;;;;;;;9.35;100.00;99066.81;4928668;29;20235;-72
2022/01/01 08:38:07;;;;;;;6.33;4.63;;;;;;;9.34;100.00;99068.59;4925657;29;20308;-72
2022/01/01 08:40:36;;;;;;;22.30;11.37;;;;;;;9.49;100.00;99068.28;4928946;29;20250;-73
2022/01/01 08:43:04;;;;;;;6.43;4.70;;;;;;;9.47;100.00;99073.69;4926109;29;20219;-73
2022/01/01 08:45:33;;;;;;;11.17;5.93;;;;;;;9.49;100.00;99073.59;4925912;29;20203;-73
2022/01/01 08:48:01;;;;;;;10.10;6.50;;;;;;;9.55;100.00;99078.34;4927457;29;20235;-72
2022/01/01 08:50:29;;;;;;;11.10;7.17;;;;;;;9.63;100.00;99088.25;4924687;29;20273;-71
2022/01/01 08:52:58;;;;;;;20.27;11.60;;;;;;;9.56;100.00;99086.13;4927305;29;20211;-70
2022/01/01 08:55:29;;;;;;;5.97;3.90;;;;;;;9.59;100.00;99079.75;4925142;29;20231;-72
2022/01/01 08:57:57;;;;;;;7.07;4.93;;;;;;;9.57;100.00;99076.41;4925991;29;20242;-71
2022/01/01 09:00:45;;;;;;;6.80;5.30;;;;;;;9.56;100.00;99080.03;4922722;29;20767;-72
2022/01/01 09:03:14;;;;;;;7.13;5.40;;;;;;;9.60;100.00;99092.03;4926028;29;20303;-72
2022/01/01 09:05:42;;;;;;;3.83;3.50;;;;;;;9.61;100.00;99079.59;4924689;29;20208;-72
2022/01/01 09:08:30;;;;;;;8.23;6.60;;;;;;;9.69;100.00;99085.13;4923902;29;20271;-71
2022/01/01 09:11:00;;;;;;;3.70;3.40;;;;;;;9.67;100.00;99081.75;4930484;29;20207;-72
2022/01/01 09:13:28;;;;;;;6.23;4.77;;;;;;;9.82;100.00;99083.06;4926279;29;20237;-71
2022/01/01 09:15:56;;;;;;;4.60;4.27;;;;;;;9.84;100.00;99093.50;4928794;29;20251;-74
2022/01/01 09:18:24;;;;;;;5.03;4.50;;;;;;;9.87;100.00;99092.44;4924386;29;20207;-73
2022/01/01 09:20:52;;;;;;;4.57;4.17;;;;;;;9.83;100.00;99105.06;4925604;29;20207;-74
2022/01/01 09:23:25;;;;;;;4.67;4.27;;;;;;;9.92;100.00;99106.09;4923504;29;20628;-71
2022/01/01 09:25:52;;;;;;;4.03;3.73;;;;;;;9.99;100.00;99117.84;4928376;29;20212;-72
2022/01/01 09:28:22;;;;;;;3.57;3.37;;;;;;;9.97;100.00;99117.13;4932341;29;20238;-72
2022/01/01 09:30:50;;;;;;;3.77;3.50;;;;;;;9.98;100.00;99124.97;4925851;29;20485;-71
2022/01/01 09:33:18;;;;;;;3.57;3.37;;;;;;;9.97;100.00;99112.69;4928815;29;20234;-71
2022/01/01 09:35:46;;;;;;;4.00;3.63;;;;;;;10.04;100.00;99117.44;4926783;29;20234;-71
2022/01/01 09:38:14;;;;;;;3.87;3.57;;;;;;;9.95;100.00;99127.00;4929557;29;20212;-70
2022/01/01 09:40:42;;;;;;;4.60;3.10;;;;;;;9.98;100.00;99124.09;4928119;29;20239;-71
2022/01/01 09:43:11;;;;;;;3.90;3.60;;;;;;;9.96;100.00;99134.00;4930828;29;20526;-71
2022/01/01 09:45:42;;;;;;;3.60;3.30;;;;;;;9.99;100.00;99133.72;4934082;29;20214;-69
2022/01/01 09:48:10;;;;;;;6.23;3.30;;;;;;;10.03;100.00;99134.31;4927067;29;20238;-72
2022/01/01 09:50:41;;;;;;;3.77;3.47;;;;;;;10.02;100.00;99128.16;4929344;29;20354;-72
2022/01/01 09:53:09;;;;;;;3.30;3.00;;;;;;;10.05;100.00;99122.63;4934710;29;20275;-71
2022/01/01 09:55:37;;;;;;;4.03;3.33;;;;;;;10.10;100.00;99119.56;4930484;29;20240;-72
2022/01/01 09:58:05;;;;;;;2.77;2.57;;;;;;;10.18;100.00;99124.19;4931584;29;20210;-71
2022/01/01 10:00:33;;;;;;;3.47;2.97;;;;;;;10.21;100.00;99115.97;4929067;29;20238;-72
2022/01/01 10:03:03;;;;;;;3.50;3.00;;;;;;;10.25;100.00;99114.75;4932959;29;20294;-72
2022/01/01 10:05:31;;;;;;;3.23;3.03;;;;;;;10.21;100.00;99115.97;4928974;29;20461;-73
2022/01/01 10:08:01;;;;;;;4.20;3.40;;;;;;;10.27;100.00;99129.53;4928725;29;20238;-72
2022/01/01 10:10:29;;;;;;;3.73;3.43;;;;;;;10.31;100.00;99122.16;4926790;29;20228;-71
2022/01/01 10:12:57;;;;;;;3.33;3.03;;;;;;;10.36;100.00;99125.22;4924532;29;20223;-71
2022/01/01 10:15:25;;;;;;;3.53;3.23;;;;;;;10.34;100.00;99115.75;4929174;29;20235;-73
2022/01/01 10:17:53;;;;;;;4.03;3.73;;;;;;;10.46;100.00;99129.78;4927392;29;20207;-72
2022/01/01 10:20:23;;;;;;;3.97;3.60;;;;;;;10.68;100.00;99118.09;4930944;29;20262;-72
2022/01/01 10:22:53;;;;;;;3.30;3.10;;;;;;;10.60;100.00;99118.78;4929758;29;20512;-72
2022/01/01 10:28:08;;;;;;;3.20;3.00;;;;;;;10.60;100.00;99116.13;4927082;29;20212;-72
2022/01/01 10:30:39;;;;;;;3.80;3.37;;;;;;;10.73;100.00;99120.31;4931878;29;20319;-72
2022/01/01 10:33:09;;;;;;;3.33;3.03;;;;;;;10.70;100.00;99108.19;4931536;29;20704;-72
2022/01/01 10:35:42;;;;;;;2.87;2.57;;;;;;;10.59;100.00;99113.59;4926568;29;20235;-73
2022/01/01 10:38:12;;;;;;;2.73;2.53;;;;;;;10.64;100.00;99111.41;4927764;29;20408;-72
2022/01/01 10:40:40;;;;;;;3.27;2.90;;;;;;;10.55;100.00;99113.88;4928196;29;20247;-71
2022/01/01 10:43:10;;;;;;;3.30;3.00;;;;;;;10.55;100.00;99111.22;4930961;29;20208;-71
2022/01/01 10:45:39;;;;;;;3.50;3.27;;;;;;;10.53;100.00;99105.22;4928321;29;20851;-72
2022/01/01 10:48:16;;;;;;;3.50;2.40;;;;;;;10.55;100.00;99110.41;4926892;29;20294;-71
2022/01/01 10:50:46;;;;;;;3.30;3.00;;;;;;;10.61;100.00;99098.41;4926244;29;20536;-72
2022/01/01 10:53:15;;;;;;;3.20;2.90;;;;;;;10.56;100.00;99104.13;4928053;29;20509;-71
2022/01/01 10:55:45;;;;;;;3.33;3.03;;;;;;;10.59;100.00;99108.28;4927941;29;20227;-72
2022/01/01 10:58:22;;;;;;;5.40;3.40;;;;;;;10.67;100.00;99106.63;4927208;29;20273;-71
2022/01/01 11:00:51;;;;;;;3.43;3.13;;;;;;;10.65;100.00;99100.63;4932868;29;20210;-72
2022/01/01 11:03:20;;;;;;;3.30;3.00;;;;;;;10.69;100.00;99098.56;4930109;29;20283;-72
2022/01/01 11:05:51;;;;;;;3.20;2.90;;;;;;;10.81;100.00;99104.59;4929188;29;20635;-71
2022/01/01 11:08:19;;;;;;;3.33;3.13;;;;;;;10.75;100.00;99100.66;4930291;29;20215;-70
2022/01/01 11:10:47;;;;;;;3.10;2.67;;;;;;;10.86;100.00;99105.00;4928701;29;20540;-71
2022/01/01 11:13:15;;;;;;;3.60;3.13;;;;;;;10.82;100.00;99096.47;4927590;29;20219;-71
2022/01/01 11:15:43;;;;;;;3.97;3.57;;;;;;;10.90;100.00;99097.59;4931747;29;20231;-70
2022/01/01 11:18:13;;;;;;;3.47;3.10;;;;;;;11.04;100.00;99093.69;4927396;29;20219;-71
2022/01/01 11:20:42;;;;;;;4.40;3.07;;;;;;;11.02;100.00;99096.50;4928744;29;20231;-72
2022/01/01 11:23:13;;;;;;;4.17;3.07;;;;;;;11.01;100.00;99102.78;4925806;29;20211;-69
2022/01/01 11:25:41;;;;;;;3.67;3.43;;;;;;;10.98;100.00;99103.03;4928976;29;20692;-71
2022/01/01 11:28:12;;;;;;;3.40;3.10;;;;;;;10.93;100.00;99103.47;4925145;29;20540;-71
2022/01/01 11:30:43;;;;;;;3.30;3.00;;;;;;;10.95;100.00;99090.91;4928688;29;20232;-72
2022/01/01 11:33:15;;;;;;;3.17;2.87;;;;;;;10.95;100.00;99098.00;4928124;29;20204;-72
2022/01/01 11:35:45;;;;;;;4.43;3.10;;;;;;;10.98;100.00;99087.13;4927207;29;20211;-69
2022/01/01 11:38:16;;;;;;;2.67;2.47;;;;;;;10.95;100.00;99084.75;4931161;29;20208;-69
2022/01/01 11:40:55;;;;;;;3.47;3.27;;;;;;;10.89;100.00;99082.66;4933481;29;20240;-71
2022/01/01 11:43:37;;;;;;;3.03;2.80;;;;;;;10.91;100.00;99086.00;4926707;29;20211;-71
2022/01/01 11:46:07;;;;;;;3.00;2.80;;;;;;;10.98;100.00;99084.47;4925555;29;20614;-71